createdAt,value
2022-08-03T00:01:01.703Z,2.17
2022-08-03T00:03:36.519Z,2.40
2022-08-03T00:06:05.279Z,2.27
2022-08-03T00:08:40.734Z,2.33
2022-08-03T00:11:10.517Z,2.27
2022-08-03T00:13:45.525Z,2.67
2022-08-03T00:16:14.389Z,2.17
2022-08-03T00:18:49.432Z,1.93
2022-08-03T00:21:17.987Z,1.87
2022-08-03T00:23:53.552Z,2.07
2022-08-03T00:26:23.875Z,2.10
2022-08-03T00:28:59.459Z,2.33
2022-08-03T00:31:44.984Z,2.10
2022-08-03T00:34:57.048Z,2.27
2022-08-03T00:37:17.881Z,2.17
2022-08-03T00:39:54.432Z,2.20
2022-08-03T00:42:29.742Z,2.30
2022-08-03T00:45:04.569Z,2.30
2022-08-03T00:47:32.996Z,2.73
2022-08-03T00:50:07.584Z,2.10
2022-08-03T00:52:36.519Z,2.50
2022-08-03T00:55:12.568Z,2.20
2022-08-03T00:57:44.097Z,2.50
2022-08-03T01:00:21.543Z,2.20
2022-08-03T01:02:52.697Z,2.10
2022-08-03T01:05:28.476Z,2.07
2022-08-03T01:08:05.149Z,2.13
2022-08-03T01:10:47.514Z,2.00
2022-08-03T01:14:01.620Z,1.70
2022-08-03T01:16:36.925Z,1.77
2022-08-03T01:19:18.061Z,1.60
2022-08-03T01:22:07.491Z,1.70
2022-08-03T01:24:46.554Z,1.67
2022-08-03T01:27:26.605Z,1.83
2022-08-03T01:30:08.771Z,1.77
2022-08-03T01:32:53.616Z,1.80
2022-08-03T01:35:41.292Z,1.77
2022-08-03T01:38:20.516Z,1.67
2022-08-03T01:40:52.006Z,1.40
2022-08-03T01:44:27.759Z,1.53
2022-08-03T01:46:22.318Z,1.50
2022-08-03T01:48:58.568Z,1.67
2022-08-03T01:51:58.642Z,1.53
2022-08-03T01:54:22.840Z,1.60
2022-08-03T01:56:53.762Z,1.83
2022-08-03T01:59:30.846Z,1.60
2022-08-03T02:02:31.813Z,1.43
2022-08-03T02:05:00.651Z,1.40
2022-08-03T02:07:30.935Z,1.80
2022-08-03T02:10:07.862Z,1.40
2022-08-03T02:12:38.517Z,1.33
2022-08-03T02:15:15.567Z,1.70
2022-08-03T02:17:47.214Z,1.70
2022-08-03T02:20:24.685Z,1.70
2022-08-03T02:22:53.263Z,1.20
2022-08-03T02:25:28.681Z,1.43
2022-08-03T02:27:59.471Z,1.50
2022-08-03T02:30:40.688Z,1.37
2022-08-03T02:33:18.380Z,1.20
2022-08-03T02:36:02.855Z,1.47
2022-08-03T02:38:35.264Z,1.93
2022-08-03T02:41:15.690Z,1.60
2022-08-03T02:44:05.739Z,1.50
2022-08-03T02:46:45.627Z,1.50
2022-08-03T02:49:40.595Z,1.80
2022-08-03T02:52:19.100Z,1.50
2022-08-03T02:54:50.565Z,1.50
2022-08-03T02:57:27.567Z,1.50
2022-08-03T02:59:57.253Z,1.40
2022-08-03T03:02:32.614Z,1.40
2022-08-03T03:05:52.835Z,1.50
2022-08-03T03:07:58.948Z,1.57
2022-08-03T03:10:34.588Z,1.43
2022-08-03T03:13:03.983Z,1.60
2022-08-03T03:15:42.612Z,1.70
2022-08-03T03:18:22.286Z,1.20
2022-08-03T03:20:54.430Z,1.67
2022-08-03T03:23:30.618Z,1.57
2022-08-03T03:26:02.250Z,1.67
2022-08-03T03:28:38.948Z,1.50
2022-08-03T03:31:08.363Z,1.77
2022-08-03T03:33:43.724Z,1.60
2022-08-03T03:36:26.664Z,1.53
2022-08-03T03:38:55.098Z,1.63
2022-08-03T03:41:33.882Z,1.57
2022-08-03T03:44:03.533Z,1.70
2022-08-03T03:46:39.628Z,1.40
2022-08-03T03:49:08.881Z,1.80
2022-08-03T03:51:45.970Z,1.70
2022-08-03T03:54:14.753Z,1.40
2022-08-03T03:56:49.660Z,1.60
2022-08-03T03:59:18.412Z,1.70
2022-08-03T04:01:58.901Z,1.70
2022-08-03T04:04:45.374Z,1.80
2022-08-03T04:07:42.132Z,1.80
2022-08-03T04:10:34.290Z,1.90
2022-08-03T04:13:11.769Z,1.80
2022-08-03T04:15:42.042Z,1.60
2022-08-03T04:18:20.682Z,2.00
2022-08-03T04:20:50.709Z,1.80
2022-08-03T04:23:30.699Z,1.90
2022-08-03T04:26:00.658Z,1.90
2022-08-03T04:28:36.759Z,2.20
2022-08-03T04:31:06.828Z,1.80
2022-08-03T04:33:45.790Z,2.20
2022-08-03T04:36:24.994Z,2.00
2022-08-03T04:39:09.661Z,2.20
2022-08-03T04:42:02.302Z,2.13
2022-08-03T04:44:36.675Z,1.93
2022-08-03T04:47:05.444Z,2.07
2022-08-03T04:49:40.880Z,1.80
2022-08-03T04:52:10.485Z,2.23
2022-08-03T04:54:51.161Z,2.17
2022-08-03T04:57:23.253Z,1.97
2022-08-03T05:00:03.381Z,1.87
2022-08-03T05:02:32.570Z,1.60
2022-08-03T05:05:07.826Z,2.10
2022-08-03T05:07:36.784Z,2.17
2022-08-03T05:10:16.318Z,1.90
2022-08-03T05:12:47.007Z,1.90
2022-08-03T05:15:23.117Z,1.70
2022-08-03T05:17:51.860Z,2.07
2022-08-03T05:20:26.765Z,1.90
2022-08-03T05:22:55.267Z,1.73
2022-08-03T05:25:31.826Z,1.97
2022-08-03T05:28:00.194Z,1.80
2022-08-03T05:30:34.807Z,1.97
2022-08-03T05:33:05.150Z,1.83
2022-08-03T05:35:57.994Z,1.97
2022-08-03T05:38:35.053Z,1.70
2022-08-03T05:41:23.376Z,1.80
2022-08-03T05:44:01.592Z,1.90
2022-08-03T05:46:36.844Z,1.70
2022-08-03T05:49:05.502Z,1.87
2022-08-03T05:51:40.729Z,1.30
2022-08-03T05:54:09.337Z,1.83
2022-08-03T05:56:47.838Z,1.77
2022-08-03T05:59:37.130Z,1.57
2022-08-03T06:02:10.773Z,1.70
2022-08-03T06:04:39.435Z,1.67
2022-08-03T06:07:14.731Z,1.90
2022-08-03T06:10:35.020Z,1.70
2022-08-03T06:12:42.923Z,1.50
2022-08-03T06:15:18.783Z,1.73
2022-08-03T06:17:48.398Z,1.77
2022-08-03T06:20:27.437Z,2.20
2022-08-03T06:23:00.825Z,1.70
2022-08-03T06:25:37.790Z,1.43
2022-08-03T06:28:14.964Z,1.50
2022-08-03T06:30:59.089Z,1.70
2022-08-03T06:34:31.161Z,1.40
2022-08-03T06:36:30.098Z,1.57
2022-08-03T06:38:58.570Z,1.33
2022-08-03T06:41:38.178Z,1.30
2022-08-03T06:44:14.669Z,1.70
2022-08-03T06:46:49.929Z,1.23
2022-08-03T06:49:19.076Z,1.60
2022-08-03T06:52:03.348Z,1.40
2022-08-03T06:54:40.119Z,1.20
2022-08-03T06:57:17.808Z,1.17
2022-08-03T07:00:09.680Z,1.30
2022-08-03T07:02:42.945Z,1.27
2022-08-03T07:05:11.858Z,1.40
2022-08-03T07:07:46.921Z,1.37
2022-08-03T07:10:15.572Z,1.33
2022-08-03T07:12:55.940Z,1.50
2022-08-03T07:15:55.716Z,1.30
2022-08-03T07:18:27.663Z,1.30
2022-08-03T07:20:58.343Z,1.20
2022-08-03T07:23:33.832Z,1.40
2022-08-03T07:26:02.350Z,1.30
2022-08-03T07:28:37.938Z,1.23
2022-08-03T07:31:08.146Z,1.40
2022-08-03T07:33:42.785Z,1.43
2022-08-03T07:36:17.453Z,1.47
2022-08-03T07:38:58.815Z,1.33
2022-08-03T07:41:34.162Z,1.60
2022-08-03T07:44:02.615Z,1.40
2022-08-03T07:46:39.797Z,1.17
2022-08-03T07:49:08.358Z,1.13
2022-08-03T07:51:43.971Z,1.30
2022-08-03T07:54:12.231Z,1.30
2022-08-03T07:56:47.988Z,1.20
2022-08-03T07:59:16.359Z,1.20
2022-08-03T08:01:52.869Z,1.40
2022-08-03T08:04:21.805Z,1.50
2022-08-03T08:06:57.043Z,1.33
2022-08-03T08:09:25.673Z,1.50
2022-08-03T08:12:03.916Z,1.40
2022-08-03T08:14:45.955Z,1.60
2022-08-03T08:17:22.916Z,1.30
2022-08-03T08:19:53.232Z,1.53
2022-08-03T08:22:30.477Z,1.10
2022-08-03T08:25:01.100Z,1.10
2022-08-03T08:28:29.013Z,1.50
2022-08-03T08:30:26.031Z,1.50
2022-08-03T08:33:02.888Z,1.40
2022-08-03T08:35:38.449Z,1.73
2022-08-03T08:38:19.936Z,1.50
2022-08-03T08:40:49.183Z,1.58
2022-08-03T08:43:24.039Z,1.20
2022-08-03T08:45:55.539Z,1.45
2022-08-03T08:48:34.029Z,1.63
2022-08-03T08:51:04.209Z,1.50
2022-08-03T08:53:43.936Z,1.48
2022-08-03T08:56:16.422Z,1.23
2022-08-03T08:58:56.951Z,1.30
2022-08-03T09:01:25.730Z,1.20
2022-08-03T09:04:03.048Z,1.33
2022-08-03T09:06:31.747Z,1.70
2022-08-03T09:09:07.035Z,1.55
2022-08-03T09:12:00.811Z,1.30
2022-08-03T09:14:36.819Z,1.50
2022-08-03T09:17:10.122Z,1.30
2022-08-03T09:20:13.960Z,1.25
2022-08-03T09:22:55.720Z,1.27
2022-08-03T09:25:37.055Z,1.50
2022-08-03T09:28:11.646Z,1.75
2022-08-03T09:30:49.373Z,1.33
2022-08-03T09:33:17.914Z,1.35
2022-08-03T09:36:03.080Z,1.50
2022-08-03T09:38:32.350Z,1.67
2022-08-03T09:41:06.992Z,1.35
2022-08-03T09:43:48.243Z,1.30
2022-08-03T09:46:22.990Z,1.30
2022-08-03T09:48:51.497Z,1.20
2022-08-03T09:52:32.153Z,1.23
2022-08-03T09:54:28.488Z,1.10
2022-08-03T09:57:03.319Z,1.20
2022-08-03T09:59:33.249Z,1.30
2022-08-03T10:02:09.083Z,1.23
2022-08-03T10:04:51.031Z,1.10
2022-08-03T10:07:29.352Z,1.00
2022-08-03T10:10:30.403Z,1.15
2022-08-03T10:12:56.338Z,1.20
2022-08-03T10:16:22.767Z,1.10
2022-08-03T10:18:20.020Z,0.98
2022-08-03T10:20:53.171Z,1.10
2022-08-03T10:23:34.082Z,1.05
2022-08-03T10:26:05.250Z,1.02
2022-08-03T10:28:45.524Z,1.30
2022-08-03T10:31:15.819Z,1.08
2022-08-03T10:33:54.014Z,1.02
2022-08-03T10:36:33.147Z,1.25
2022-08-03T10:39:15.949Z,1.20
2022-08-03T10:41:47.223Z,1.13
2022-08-03T10:44:27.404Z,1.40
2022-08-03T10:46:56.257Z,0.95
2022-08-03T10:49:35.372Z,1.10
2022-08-03T10:52:13.300Z,0.88
2022-08-03T10:55:25.001Z,1.20
2022-08-03T10:57:58.632Z,1.10
2022-08-03T11:00:37.066Z,0.85
2022-08-03T11:03:10.412Z,0.90
2022-08-03T11:05:47.994Z,1.15
2022-08-03T11:08:30.226Z,0.93
2022-08-03T11:11:09.025Z,1.13
2022-08-03T11:13:37.122Z,1.02
2022-08-03T11:16:29.998Z,1.02
2022-08-03T11:18:59.207Z,1.15
2022-08-03T11:22:13.009Z,1.08
2022-08-03T11:25:05.594Z,1.00
2022-08-03T11:27:42.041Z,1.02
2022-08-03T11:30:13.823Z,1.00
2022-08-03T11:33:01.038Z,1.10
2022-08-03T11:35:31.256Z,1.10
2022-08-03T11:38:17.033Z,1.00
2022-08-03T11:40:47.019Z,1.00
2022-08-03T11:43:54.061Z,0.95
2022-08-03T11:46:29.636Z,1.05
2022-08-03T11:49:14.145Z,1.00
2022-08-03T11:51:55.634Z,0.90
2022-08-03T11:54:32.043Z,1.02
2022-08-03T11:57:00.148Z,0.90
2022-08-03T11:59:41.076Z,0.93
2022-08-03T12:02:10.022Z,1.05
2022-08-03T12:04:58.105Z,0.98
2022-08-03T12:08:04.049Z,1.10
2022-08-03T12:10:26.055Z,1.00
2022-08-03T12:12:58.223Z,1.20
2022-08-03T12:15:36.043Z,1.00
2022-08-03T12:18:14.764Z,0.93
2022-08-03T12:20:50.077Z,1.08
2022-08-03T12:23:20.503Z,1.02
2022-08-03T12:25:56.072Z,1.10
2022-08-03T12:28:36.090Z,0.93
2022-08-03T12:31:16.078Z,1.10
2022-08-03T12:33:59.018Z,1.00
2022-08-03T12:36:36.115Z,1.20
2022-08-03T12:39:07.609Z,0.95
2022-08-03T12:41:44.150Z,0.90
2022-08-03T12:44:12.213Z,0.90
2022-08-03T12:46:49.095Z,1.05
2022-08-03T12:49:19.092Z,1.15
2022-08-03T12:52:15.103Z,0.90
2022-08-03T12:54:43.932Z,0.98
2022-08-03T12:57:20.344Z,1.00
2022-08-03T12:59:52.867Z,1.00
2022-08-03T13:02:31.150Z,1.10
2022-08-03T13:05:10.973Z,0.80
2022-08-03T13:07:49.082Z,1.05
2022-08-03T13:10:29.925Z,0.80
2022-08-03T13:13:07.135Z,1.00
2022-08-03T13:15:38.598Z,1.10
2022-08-03T13:18:25.138Z,1.05
2022-08-03T13:20:53.512Z,0.90
2022-08-03T13:23:28.147Z,1.00
2022-08-03T13:25:56.409Z,0.85
2022-08-03T13:28:31.149Z,0.90
2022-08-03T13:30:59.241Z,1.13
2022-08-03T13:33:36.131Z,0.90
2022-08-03T13:36:04.397Z,1.30
2022-08-03T13:38:39.189Z,1.00
2022-08-03T13:41:07.912Z,1.10
2022-08-03T13:43:42.155Z,1.08
2022-08-03T13:46:10.265Z,0.90
2022-08-03T13:48:46.168Z,0.90
2022-08-03T13:51:21.932Z,0.90
2022-08-03T13:53:58.143Z,0.80
2022-08-03T13:56:26.230Z,0.90
2022-08-03T13:59:01.163Z,0.88
2022-08-03T14:01:54.075Z,0.80
2022-08-03T14:04:25.171Z,1.50
2022-08-03T14:06:56.029Z,0.70
2022-08-03T14:09:30.180Z,1.00
2022-08-03T14:12:08.337Z,1.00
2022-08-03T14:14:44.243Z,0.90
2022-08-03T14:17:12.342Z,0.80
2022-08-03T14:19:53.187Z,0.82
2022-08-03T14:22:22.240Z,1.00
2022-08-03T14:24:57.189Z,1.10
2022-08-03T14:27:25.844Z,0.68
2022-08-03T14:30:00.355Z,0.80
2022-08-03T14:32:28.526Z,0.88
2022-08-03T14:35:04.208Z,0.90
2022-08-03T14:37:33.688Z,1.10
2022-08-03T14:40:08.231Z,0.88
2022-08-03T14:42:36.325Z,0.80
2022-08-03T14:45:20.349Z,0.80
2022-08-03T14:50:31.700Z,1.05
2022-08-03T14:50:51.056Z,0.80
2022-08-03T14:53:26.378Z,0.80
2022-08-03T14:56:01.930Z,0.90
2022-08-03T14:58:32.343Z,0.90
2022-08-03T15:02:02.903Z,0.82
2022-08-03T15:03:55.327Z,0.70
2022-08-03T15:06:31.200Z,1.02
2022-08-03T15:09:21.472Z,0.77
2022-08-03T15:11:54.223Z,1.25
2022-08-03T15:14:28.342Z,1.05
2022-08-03T15:17:08.281Z,0.70
2022-08-03T15:20:03.978Z,0.75
2022-08-03T15:22:35.103Z,0.75
2022-08-03T15:25:04.048Z,0.73
2022-08-03T15:28:03.836Z,0.80
2022-08-03T15:30:42.249Z,1.00
2022-08-03T15:33:10.319Z,0.80
2022-08-03T15:35:48.095Z,0.85
2022-08-03T15:38:25.806Z,0.70
2022-08-03T15:40:55.426Z,0.95
2022-08-03T15:43:30.264Z,0.80
2022-08-03T15:46:27.813Z,0.90
2022-08-03T15:48:55.263Z,1.10
2022-08-03T15:51:36.279Z,0.90
2022-08-03T15:54:12.497Z,1.05
2022-08-03T15:56:48.277Z,0.80
2022-08-03T15:59:16.455Z,0.68
2022-08-03T16:01:51.331Z,0.85
2022-08-03T16:04:24.080Z,0.70
2022-08-03T16:06:58.286Z,0.93
2022-08-03T16:09:43.262Z,0.70
2022-08-03T16:12:19.316Z,0.82
2022-08-03T16:14:53.784Z,0.82
2022-08-03T16:17:30.288Z,0.80
2022-08-03T16:19:58.328Z,0.90
2022-08-03T16:22:27.029Z,0.90
2022-08-03T16:25:03.303Z,0.80
2022-08-03T16:27:56.754Z,0.88
2022-08-03T16:30:26.335Z,0.82
2022-08-03T16:33:01.654Z,0.75
2022-08-03T16:35:29.869Z,1.00
2022-08-03T16:38:09.211Z,0.88
2022-08-03T16:40:39.388Z,0.98
2022-08-03T16:43:24.301Z,0.90
2022-08-03T16:45:52.783Z,0.90
2022-08-03T16:48:27.327Z,1.00
2022-08-03T16:51:15.376Z,0.70
2022-08-03T16:54:05.594Z,1.00
2022-08-03T16:56:37.815Z,0.70
2022-08-03T16:59:13.371Z,0.77
2022-08-03T17:01:42.111Z,0.95
2022-08-03T17:04:22.317Z,0.90
2022-08-03T17:06:51.033Z,0.98
2022-08-03T17:09:26.441Z,0.90
2022-08-03T17:12:10.951Z,0.88
2022-08-03T17:14:46.573Z,0.93
2022-08-03T17:17:22.279Z,0.82
2022-08-03T17:19:58.405Z,1.00
2022-08-03T17:22:32.413Z,1.08
2022-08-03T17:25:21.751Z,0.70
2022-08-03T17:28:49.200Z,0.90
2022-08-03T17:31:22.864Z,1.10
2022-08-03T17:34:01.541Z,0.90
2022-08-03T17:37:02.672Z,0.80
2022-08-03T17:39:42.224Z,0.95
2022-08-03T17:42:31.163Z,1.00
2022-08-03T17:45:03.848Z,1.00
2022-08-03T17:47:43.622Z,1.00
2022-08-03T17:50:24.085Z,0.90
2022-08-03T17:53:15.705Z,1.38
2022-08-03T17:56:04.419Z,1.20
2022-08-03T17:58:52.355Z,1.10
2022-08-03T18:02:02.630Z,0.90
2022-08-03T18:04:40.622Z,0.98
2022-08-03T18:07:18.395Z,1.02
2022-08-03T18:10:03.771Z,0.90
2022-08-03T18:12:41.539Z,1.10
2022-08-03T18:15:20.917Z,0.90
2022-08-03T18:17:55.410Z,0.90
2022-08-03T18:20:41.538Z,0.95
2022-08-03T18:23:11.463Z,0.98
2022-08-03T18:26:01.464Z,0.90
2022-08-03T18:28:30.539Z,1.02
2022-08-03T18:31:06.151Z,0.90
2022-08-03T18:34:18.251Z,1.02
2022-08-03T18:36:34.446Z,1.10
2022-08-03T18:39:03.213Z,0.95
2022-08-03T18:41:41.103Z,0.93
2022-08-03T18:44:53.059Z,0.88
2022-08-03T18:47:22.426Z,0.90
2022-08-03T18:50:00.279Z,0.93
2022-08-03T18:52:45.951Z,1.35
2022-08-03T18:55:35.427Z,1.10
2022-08-03T18:58:22.476Z,1.40
2022-08-03T19:00:59.733Z,1.30
2022-08-03T19:03:42.950Z,1.20
2022-08-03T19:06:20.640Z,1.02
2022-08-03T19:09:02.498Z,0.98
2022-08-03T19:12:13.105Z,1.00
2022-08-03T19:14:37.500Z,1.00
2022-08-03T19:17:11.367Z,1.10
2022-08-03T19:19:46.476Z,1.10
2022-08-03T19:22:21.344Z,1.27
2022-08-03T19:24:59.612Z,1.08
2022-08-03T19:27:30.437Z,0.80
2022-08-03T19:30:19.931Z,1.20
2022-08-03T19:32:54.854Z,0.95
2022-08-03T19:35:49.762Z,1.23
2022-08-03T19:38:27.583Z,1.10
2022-08-03T19:41:06.508Z,0.90
2022-08-03T19:43:53.986Z,1.08
2022-08-03T19:46:34.496Z,1.13
2022-08-03T19:49:10.698Z,1.30
2022-08-03T19:52:02.100Z,1.40
2022-08-03T19:54:52.906Z,2.33
2022-08-03T19:57:31.509Z,3.53
2022-08-03T20:00:03.366Z,5.28
2022-08-03T20:02:39.529Z,4.53
2022-08-03T20:05:14.768Z,1.73
2022-08-03T20:07:51.562Z,1.23
2022-08-03T20:10:21.673Z,1.40
2022-08-03T20:12:57.551Z,1.75
2022-08-03T20:15:31.754Z,1.75
2022-08-03T20:18:07.521Z,1.40
2022-08-03T20:20:49.577Z,1.30
2022-08-03T20:23:27.526Z,1.20
2022-08-03T20:26:09.413Z,1.38
2022-08-03T20:28:51.173Z,1.17
2022-08-03T20:31:25.211Z,1.00
2022-08-03T20:34:09.204Z,1.25
2022-08-03T20:36:38.296Z,0.93
2022-08-03T20:39:12.671Z,1.20
2022-08-03T20:41:42.809Z,1.10
2022-08-03T20:44:17.566Z,1.00
2022-08-03T20:46:56.389Z,1.10
2022-08-03T20:49:45.897Z,1.30
2022-08-03T20:52:21.968Z,1.25
2022-08-03T20:55:12.859Z,1.27
2022-08-03T20:57:51.669Z,1.15
2022-08-03T21:00:26.631Z,1.05
2022-08-03T21:02:56.182Z,1.10
2022-08-03T21:08:29.730Z,1.30
2022-08-03T21:11:01.468Z,1.17
2022-08-03T21:13:13.089Z,1.42
2022-08-03T21:13:47.578Z,1.30
2022-08-03T21:16:17.973Z,1.15
2022-08-03T21:18:55.600Z,1.10
2022-08-03T21:21:24.827Z,1.30
2022-08-03T21:24:02.624Z,1.23
2022-08-03T21:26:34.604Z,1.40
2022-08-03T21:29:10.609Z,1.17
2022-08-03T21:31:40.607Z,1.30
2022-08-03T21:34:15.782Z,1.33
2022-08-03T21:36:44.271Z,1.20
2022-08-03T21:39:19.677Z,1.50
2022-08-03T21:41:47.809Z,1.42
2022-08-03T21:44:28.964Z,1.27
2022-08-03T21:46:59.491Z,1.48
2022-08-03T21:50:07.874Z,1.40
2022-08-03T21:52:31.829Z,1.30
2022-08-03T21:55:20.449Z,1.45
2022-08-03T21:57:53.223Z,1.30
2022-08-03T22:00:30.618Z,1.38
2022-08-03T22:03:00.268Z,1.20
2022-08-03T22:05:51.675Z,1.30
2022-08-03T22:08:31.242Z,1.33
2022-08-03T22:11:05.634Z,1.55
2022-08-03T22:13:43.528Z,1.35
2022-08-03T22:16:21.643Z,1.60
2022-08-03T22:18:49.920Z,1.45
2022-08-03T22:21:27.674Z,1.35
2022-08-03T22:24:06.808Z,1.40
2022-08-03T22:26:43.656Z,1.50
2022-08-03T22:29:11.992Z,1.40
2022-08-03T22:31:58.315Z,1.40
2022-08-03T22:34:28.201Z,1.57
2022-08-03T22:37:08.662Z,1.60
2022-08-03T22:39:38.475Z,1.40
2022-08-03T22:42:13.741Z,1.77
2022-08-03T22:44:41.816Z,1.50
2022-08-03T22:47:22.483Z,1.92
2022-08-03T22:50:31.375Z,1.48
2022-08-03T22:52:49.717Z,1.50
2022-08-03T22:55:26.060Z,1.60
2022-08-03T22:58:01.720Z,1.73
2022-08-03T23:00:29.788Z,1.50
2022-08-03T23:03:09.784Z,1.42
2022-08-03T23:06:00.992Z,1.50
2022-08-03T23:08:34.729Z,1.65
2022-08-03T23:11:08.511Z,1.70
2022-08-03T23:13:46.687Z,1.58
2022-08-03T23:16:16.532Z,1.57
2022-08-03T23:19:06.707Z,1.58
2022-08-03T23:21:53.130Z,1.42
2022-08-03T23:24:35.728Z,1.47
2022-08-03T23:27:24.717Z,1.52
2022-08-03T23:30:00.591Z,1.73
2022-08-03T23:32:37.763Z,1.47
2022-08-03T23:36:20.123Z,1.35
2022-08-03T23:38:23.108Z,2.05
2022-08-03T23:40:51.631Z,2.00
2022-08-03T23:43:51.477Z,1.53
2022-08-03T23:46:18.250Z,1.50
2022-08-03T23:48:53.861Z,1.55
2022-08-03T23:51:43.991Z,1.70
2022-08-03T23:54:38.756Z,1.60
2022-08-03T23:57:15.932Z,1.60
